sensor_id;sensor_type;location;lat;lon;timestamp;P1;durP1;ratioP1;P2;durP2;ratioP2
83429;SDS011;73362;50.952;6.952;2024-01-27T00:01:34;14.10;;;3.10;;
83429;SDS011;73362;50.952;6.952;2024-01-27T00:04:02;10.13;;;2.50;;
83429;SDS011;73362;50.952;6.952;2024-01-27T00:06:31;12.60;;;2.60;;
83429;SDS011;73362;50.952;6.952;2024-01-27T00:08:59;14.20;;;2.63;;
83429;SDS011;73362;50.952;6.952;2024-01-27T00:11:27;13.80;;;2.97;;
83429;SDS011;73362;50.952;6.952;2024-01-27T00:13:55;15.27;;;2.90;;
83429;SDS011;73362;50.952;6.952;2024-01-27T00:16:23;13.90;;;3.17;;
83429;SDS011;73362;50.952;6.952;2024-01-27T00:18:51;9.27;;;2.30;;
83429;SDS011;73362;50.952;6.952;2024-01-27T00:21:19;9.97;;;2.10;;
83429;SDS011;73362;50.952;6.952;2024-01-27T00:23:47;11.90;;;2.77;;
83429;SDS011;73362;50.952;6.952;2024-01-27T00:26:15;7.60;;;2.13;;
83429;SDS011;73362;50.952;6.952;2024-01-27T00:28:43;8.70;;;2.40;;
83429;SDS011;73362;50.952;6.952;2024-01-27T00:31:11;11.97;;;2.30;;
83429;SDS011;73362;50.952;6.952;2024-01-27T00:33:39;7.77;;;2.40;;
83429;SDS011;73362;50.952;6.952;2024-01-27T00:36:07;8.77;;;2.50;;
83429;SDS011;73362;50.952;6.952;2024-01-27T00:38:35;8.23;;;2.27;;
83429;SDS011;73362;50.952;6.952;2024-01-27T00:41:03;10.77;;;3.07;;
83429;SDS011;73362;50.952;6.952;2024-01-27T00:43:31;12.57;;;2.47;;
83429;SDS011;73362;50.952;6.952;2024-01-27T00:45:59;9.10;;;2.80;;
83429;SDS011;73362;50.952;6.952;2024-01-27T00:48:27;13.57;;;2.93;;
83429;SDS011;73362;50.952;6.952;2024-01-27T00:50:55;7.47;;;2.40;;
83429;SDS011;73362;50.952;6.952;2024-01-27T00:53:23;14.67;;;2.67;;
83429;SDS011;73362;50.952;6.952;2024-01-27T00:55:51;13.77;;;2.67;;
83429;SDS011;73362;50.952;6.952;2024-01-27T00:58:19;12.53;;;2.47;;
83429;SDS011;73362;50.952;6.952;2024-01-27T01:00:47;11.70;;;2.60;;
83429;SDS011;73362;50.952;6.952;2024-01-27T01:03:15;10.53;;;3.07;;
83429;SDS011;73362;50.952;6.952;2024-01-27T01:05:43;14.00;;;2.30;;
83429;SDS011;73362;50.952;6.952;2024-01-27T01:08:11;9.10;;;2.30;;
83429;SDS011;73362;50.952;6.952;2024-01-27T01:10:39;10.27;;;2.73;;
83429;SDS011;73362;50.952;6.952;2024-01-27T01:13:08;15.20;;;2.83;;
83429;SDS011;73362;50.952;6.952;2024-01-27T01:15:36;13.47;;;2.40;;
83429;SDS011;73362;50.952;6.952;2024-01-27T01:18:04;8.13;;;2.60;;
83429;SDS011;73362;50.952;6.952;2024-01-27T01:20:32;11.67;;;2.60;;
83429;SDS011;73362;50.952;6.952;2024-01-27T01:23:00;14.90;;;2.73;;
83429;SDS011;73362;50.952;6.952;2024-01-27T01:25:28;13.87;;;3.13;;
83429;SDS011;73362;50.952;6.952;2024-01-27T01:27:56;11.27;;;2.77;;
83429;SDS011;73362;50.952;6.952;2024-01-27T01:30:24;14.10;;;2.97;;
83429;SDS011;73362;50.952;6.952;2024-01-27T01:32:52;7.53;;;2.70;;
83429;SDS011;73362;50.952;6.952;2024-01-27T01:35:20;10.57;;;2.83;;
83429;SDS011;73362;50.952;6.952;2024-01-27T01:37:48;10.37;;;2.60;;
83429;SDS011;73362;50.952;6.952;2024-01-27T01:40:16;11.50;;;2.80;;
83429;SDS011;73362;50.952;6.952;2024-01-27T01:42:49;11.13;;;2.57;;
83429;SDS011;73362;50.952;6.952;2024-01-27T01:45:12;15.17;;;3.47;;
83429;SDS011;73362;50.952;6.952;2024-01-27T01:47:40;13.97;;;2.90;;
83429;SDS011;73362;50.952;6.952;2024-01-27T01:50:08;12.20;;;3.10;;
83429;SDS011;73362;50.952;6.952;2024-01-27T01:52:36;17.23;;;2.80;;
83429;SDS011;73362;50.952;6.952;2024-01-27T01:55:05;12.97;;;2.83;;
83429;SDS011;73362;50.952;6.952;2024-01-27T01:57:33;12.17;;;2.83;;
83429;SDS011;73362;50.952;6.952;2024-01-27T02:00:01;10.90;;;3.17;;
83429;SDS011;73362;50.952;6.952;2024-01-27T02:02:29;13.17;;;2.87;;
83429;SDS011;73362;50.952;6.952;2024-01-27T02:04:57;9.57;;;3.00;;
83429;SDS011;73362;50.952;6.952;2024-01-27T02:07:25;10.60;;;3.10;;
83429;SDS011;73362;50.952;6.952;2024-01-27T02:09:53;11.47;;;3.37;;
83429;SDS011;73362;50.952;6.952;2024-01-27T02:12:21;13.90;;;3.20;;
83429;SDS011;73362;50.952;6.952;2024-01-27T02:14:49;11.80;;;2.50;;
83429;SDS011;73362;50.952;6.952;2024-01-27T02:17:17;11.60;;;2.77;;
83429;SDS011;73362;50.952;6.952;2024-01-27T02:19:45;13.73;;;3.20;;
83429;SDS011;73362;50.952;6.952;2024-01-27T02:22:13;13.13;;;2.90;;
83429;SDS011;73362;50.952;6.952;2024-01-27T02:24:41;8.60;;;3.80;;
83429;SDS011;73362;50.952;6.952;2024-01-27T02:27:09;10.17;;;3.50;;
83429;SDS011;73362;50.952;6.952;2024-01-27T02:29:37;13.67;;;3.07;;
83429;SDS011;73362;50.952;6.952;2024-01-27T02:32:05;11.23;;;3.17;;
83429;SDS011;73362;50.952;6.952;2024-01-27T02:34:33;10.63;;;3.30;;
83429;SDS011;73362;50.952;6.952;2024-01-27T02:37:02;10.47;;;3.07;;
83429;SDS011;73362;50.952;6.952;2024-01-27T02:39:30;11.17;;;3.07;;
83429;SDS011;73362;50.952;6.952;2024-01-27T02:41:58;11.23;;;3.07;;
83429;SDS011;73362;50.952;6.952;2024-01-27T02:44:26;8.40;;;2.57;;
83429;SDS011;73362;50.952;6.952;2024-01-27T02:46:54;9.80;;;2.70;;
83429;SDS011;73362;50.952;6.952;2024-01-27T02:49:22;13.67;;;3.20;;
83429;SDS011;73362;50.952;6.952;2024-01-27T02:51:50;10.40;;;3.27;;
83429;SDS011;73362;50.952;6.952;2024-01-27T02:54:18;10.33;;;2.87;;
83429;SDS011;73362;50.952;6.952;2024-01-27T02:56:46;10.17;;;3.07;;
83429;SDS011;73362;50.952;6.952;2024-01-27T02:59:14;9.93;;;2.97;;
83429;SDS011;73362;50.952;6.952;2024-01-27T03:01:42;10.40;;;2.97;;
83429;SDS011;73362;50.952;6.952;2024-01-27T03:04:10;12.50;;;3.47;;
83429;SDS011;73362;50.952;6.952;2024-01-27T03:06:38;7.57;;;2.70;;
83429;SDS011;73362;50.952;6.952;2024-01-27T03:09:06;8.90;;;2.80;;
83429;SDS011;73362;50.952;6.952;2024-01-27T03:11:34;14.43;;;3.17;;
83429;SDS011;73362;50.952;6.952;2024-01-27T03:14:02;8.80;;;3.20;;
83429;SDS011;73362;50.952;6.952;2024-01-27T03:16:30;12.10;;;3.07;;
83429;SDS011;73362;50.952;6.952;2024-01-27T03:18:58;12.27;;;3.33;;
83429;SDS011;73362;50.952;6.952;2024-01-27T03:21:27;12.67;;;3.37;;
83429;SDS011;73362;50.952;6.952;2024-01-27T03:26:26;11.93;;;3.77;;
83429;SDS011;73362;50.952;6.952;2024-01-27T03:28:54;10.23;;;3.40;;
83429;SDS011;73362;50.952;6.952;2024-01-27T03:31:22;13.80;;;3.47;;
83429;SDS011;73362;50.952;6.952;2024-01-27T03:33:50;11.53;;;3.37;;
83429;SDS011;73362;50.952;6.952;2024-01-27T03:36:18;11.00;;;3.73;;
83429;SDS011;73362;50.952;6.952;2024-01-27T03:38:46;12.63;;;3.47;;
83429;SDS011;73362;50.952;6.952;2024-01-27T03:41:14;14.67;;;3.47;;
83429;SDS011;73362;50.952;6.952;2024-01-27T03:43:42;10.03;;;3.10;;
83429;SDS011;73362;50.952;6.952;2024-01-27T03:46:10;11.97;;;3.20;;
83429;SDS011;73362;50.952;6.952;2024-01-27T03:48:38;15.03;;;3.70;;
83429;SDS011;73362;50.952;6.952;2024-01-27T03:51:06;10.53;;;3.43;;
83429;SDS011;73362;50.952;6.952;2024-01-27T03:53:34;13.00;;;4.07;;
83429;SDS011;73362;50.952;6.952;2024-01-27T03:56:02;10.93;;;3.63;;
83429;SDS011;73362;50.952;6.952;2024-01-27T03:58:30;12.00;;;3.83;;
83429;SDS011;73362;50.952;6.952;2024-01-27T04:00:58;13.17;;;4.10;;
83429;SDS011;73362;50.952;6.952;2024-01-27T04:03:26;10.30;;;3.40;;
83429;SDS011;73362;50.952;6.952;2024-01-27T04:05:54;9.73;;;3.53;;
83429;SDS011;73362;50.952;6.952;2024-01-27T04:08:22;12.40;;;3.47;;
83429;SDS011;73362;50.952;6.952;2024-01-27T04:10:50;10.37;;;3.53;;
83429;SDS011;73362;50.952;6.952;2024-01-27T04:13:18;13.10;;;3.60;;
83429;SDS011;73362;50.952;6.952;2024-01-27T04:15:46;12.13;;;3.30;;
83429;SDS011;73362;50.952;6.952;2024-01-27T04:18:14;14.07;;;3.60;;
83429;SDS011;73362;50.952;6.952;2024-01-27T04:20:42;14.67;;;3.60;;
83429;SDS011;73362;50.952;6.952;2024-01-27T04:23:10;11.57;;;3.47;;
83429;SDS011;73362;50.952;6.952;2024-01-27T04:25:38;10.43;;;2.73;;
83429;SDS011;73362;50.952;6.952;2024-01-27T04:28:06;14.10;;;3.43;;
83429;SDS011;73362;50.952;6.952;2024-01-27T04:30:35;9.77;;;2.67;;
83429;SDS011;73362;50.952;6.952;2024-01-27T04:33:03;11.33;;;3.10;;
83429;SDS011;73362;50.952;6.952;2024-01-27T04:35:31;17.73;;;3.50;;
83429;SDS011;73362;50.952;6.952;2024-01-27T04:37:59;11.97;;;3.20;;
83429;SDS011;73362;50.952;6.952;2024-01-27T04:40:27;7.37;;;2.93;;
83429;SDS011;73362;50.952;6.952;2024-01-27T04:42:55;17.03;;;3.43;;
83429;SDS011;73362;50.952;6.952;2024-01-27T04:45:23;12.83;;;3.10;;
83429;SDS011;73362;50.952;6.952;2024-01-27T04:47:51;10.60;;;3.37;;
83429;SDS011;73362;50.952;6.952;2024-01-27T04:50:20;8.83;;;3.10;;
83429;SDS011;73362;50.952;6.952;2024-01-27T04:52:47;13.97;;;3.10;;
83429;SDS011;73362;50.952;6.952;2024-01-27T04:55:15;9.43;;;2.77;;
83429;SDS011;73362;50.952;6.952;2024-01-27T04:57:43;11.40;;;3.30;;
83429;SDS011;73362;50.952;6.952;2024-01-27T05:00:12;12.87;;;3.20;;
83429;SDS011;73362;50.952;6.952;2024-01-27T05:02:41;10.37;;;3.20;;
83429;SDS011;73362;50.952;6.952;2024-01-27T05:05:08;11.63;;;3.00;;
83429;SDS011;73362;50.952;6.952;2024-01-27T05:07:36;12.53;;;3.10;;
83429;SDS011;73362;50.952;6.952;2024-01-27T05:10:04;13.67;;;3.33;;
83429;SDS011;73362;50.952;6.952;2024-01-27T05:12:33;15.03;;;3.50;;
83429;SDS011;73362;50.952;6.952;2024-01-27T05:15:01;7.83;;;2.97;;
83429;SDS011;73362;50.952;6.952;2024-01-27T05:17:29;12.27;;;3.07;;
83429;SDS011;73362;50.952;6.952;2024-01-27T05:19:58;7.30;;;2.40;;
83429;SDS011;73362;50.952;6.952;2024-01-27T05:22:25;11.53;;;2.83;;
83429;SDS011;73362;50.952;6.952;2024-01-27T05:24:53;11.20;;;2.73;;
83429;SDS011;73362;50.952;6.952;2024-01-27T05:27:21;11.37;;;2.93;;
83429;SDS011;73362;50.952;6.952;2024-01-27T05:29:49;10.43;;;3.13;;
83429;SDS011;73362;50.952;6.952;2024-01-27T05:32:18;13.30;;;3.23;;
83429;SDS011;73362;50.952;6.952;2024-01-27T05:34:46;9.40;;;3.40;;
83429;SDS011;73362;50.952;6.952;2024-01-27T05:37:14;13.90;;;3.53;;
83429;SDS011;73362;50.952;6.952;2024-01-27T05:39:42;12.30;;;3.40;;
83429;SDS011;73362;50.952;6.952;2024-01-27T05:42:10;6.77;;;3.13;;
83429;SDS011;73362;50.952;6.952;2024-01-27T05:44:38;15.20;;;4.07;;
83429;SDS011;73362;50.952;6.952;2024-01-27T05:47:06;7.63;;;3.30;;
83429;SDS011;73362;50.952;6.952;2024-01-27T05:49:34;10.57;;;3.00;;
83429;SDS011;73362;50.952;6.952;2024-01-27T05:52:02;12.93;;;3.40;;
83429;SDS011;73362;50.952;6.952;2024-01-27T05:54:30;8.70;;;3.00;;
83429;SDS011;73362;50.952;6.952;2024-01-27T05:56:58;8.10;;;2.80;;
83429;SDS011;73362;50.952;6.952;2024-01-27T05:59:26;11.07;;;3.10;;
83429;SDS011;73362;50.952;6.952;2024-01-27T06:01:54;9.53;;;3.43;;
83429;SDS011;73362;50.952;6.952;2024-01-27T06:04:22;7.90;;;2.90;;
83429;SDS011;73362;50.952;6.952;2024-01-27T06:06:50;8.77;;;3.20;;
83429;SDS011;73362;50.952;6.952;2024-01-27T06:09:18;6.47;;;3.23;;
83429;SDS011;73362;50.952;6.952;2024-01-27T06:11:46;9.73;;;3.10;;
83429;SDS011;73362;50.952;6.952;2024-01-27T06:14:14;9.47;;;3.13;;
83429;SDS011;73362;50.952;6.952;2024-01-27T06:16:42;9.07;;;3.30;;
83429;SDS011;73362;50.952;6.952;2024-01-27T06:19:10;12.73;;;3.37;;
83429;SDS011;73362;50.952;6.952;2024-01-27T06:21:39;9.03;;;3.37;;
83429;SDS011;73362;50.952;6.952;2024-01-27T06:24:07;8.60;;;3.27;;
83429;SDS011;73362;50.952;6.952;2024-01-27T06:26:35;13.63;;;4.17;;
83429;SDS011;73362;50.952;6.952;2024-01-27T06:29:03;10.90;;;3.37;;
83429;SDS011;73362;50.952;6.952;2024-01-27T06:31:31;11.47;;;3.30;;
83429;SDS011;73362;50.952;6.952;2024-01-27T06:33:59;12.23;;;3.70;;
83429;SDS011;73362;50.952;6.952;2024-01-27T06:36:27;10.10;;;3.40;;
83429;SDS011;73362;50.952;6.952;2024-01-27T06:38:55;11.13;;;3.60;;
83429;SDS011;73362;50.952;6.952;2024-01-27T06:41:23;10.67;;;3.17;;
83429;SDS011;73362;50.952;6.952;2024-01-27T06:43:51;10.87;;;3.23;;
83429;SDS011;73362;50.952;6.952;2024-01-27T06:46:19;7.17;;;3.40;;
83429;SDS011;73362;50.952;6.952;2024-01-27T06:48:47;11.93;;;3.17;;
83429;SDS011;73362;50.952;6.952;2024-01-27T06:51:15;8.40;;;3.07;;
83429;SDS011;73362;50.952;6.952;2024-01-27T06:53:43;10.83;;;3.60;;
83429;SDS011;73362;50.952;6.952;2024-01-27T06:56:11;15.47;;;3.70;;
83429;SDS011;73362;50.952;6.952;2024-01-27T06:58:39;14.63;;;3.33;;
83429;SDS011;73362;50.952;6.952;2024-01-27T07:01:08;13.73;;;4.17;;
83429;SDS011;73362;50.952;6.952;2024-01-27T07:03:36;10.67;;;3.20;;
83429;SDS011;73362;50.952;6.952;2024-01-27T07:06:05;11.10;;;3.40;;
83429;SDS011;73362;50.952;6.952;2024-01-27T07:08:33;7.77;;;3.07;;
83429;SDS011;73362;50.952;6.952;2024-01-27T07:11:01;7.93;;;3.23;;
83429;SDS011;73362;50.952;6.952;2024-01-27T07:13:29;12.87;;;3.93;;
83429;SDS011;73362;50.952;6.952;2024-01-27T07:15:57;8.07;;;2.77;;
83429;SDS011;73362;50.952;6.952;2024-01-27T07:18:25;11.23;;;3.60;;
83429;SDS011;73362;50.952;6.952;2024-01-27T07:20:53;8.13;;;3.10;;
83429;SDS011;73362;50.952;6.952;2024-01-27T07:23:21;10.97;;;3.27;;
83429;SDS011;73362;50.952;6.952;2024-01-27T07:25:49;9.10;;;3.30;;
83429;SDS011;73362;50.952;6.952;2024-01-27T07:28:17;9.70;;;3.27;;
83429;SDS011;73362;50.952;6.952;2024-01-27T07:30:45;8.50;;;3.00;;
83429;SDS011;73362;50.952;6.952;2024-01-27T07:33:13;7.27;;;2.93;;
83429;SDS011;73362;50.952;6.952;2024-01-27T07:35:41;10.47;;;3.27;;
83429;SDS011;73362;50.952;6.952;2024-01-27T07:38:09;9.83;;;2.90;;
83429;SDS011;73362;50.952;6.952;2024-01-27T07:40:37;8.27;;;2.87;;
83429;SDS011;73362;50.952;6.952;2024-01-27T07:43:05;8.60;;;3.30;;
83429;SDS011;73362;50.952;6.952;2024-01-27T07:45:33;11.00;;;2.70;;
83429;SDS011;73362;50.952;6.952;2024-01-27T07:48:01;11.03;;;3.10;;
83429;SDS011;73362;50.952;6.952;2024-01-27T07:50:29;9.93;;;3.03;;
83429;SDS011;73362;50.952;6.952;2024-01-27T07:52:57;10.23;;;2.90;;
83429;SDS011;73362;50.952;6.952;2024-01-27T07:55:25;8.90;;;3.43;;
83429;SDS011;73362;50.952;6.952;2024-01-27T07:57:54;12.97;;;3.60;;
83429;SDS011;73362;50.952;6.952;2024-01-27T08:00:22;8.40;;;3.20;;
83429;SDS011;73362;50.952;6.952;2024-01-27T08:02:50;6.77;;;3.70;;
83429;SDS011;73362;50.952;6.952;2024-01-27T08:05:18;6.93;;;3.03;;
83429;SDS011;73362;50.952;6.952;2024-01-27T08:07:46;10.43;;;3.40;;
83429;SDS011;73362;50.952;6.952;2024-01-27T08:10:14;12.27;;;3.67;;
83429;SDS011;73362;50.952;6.952;2024-01-27T08:12:42;12.47;;;3.27;;
83429;SDS011;73362;50.952;6.952;2024-01-27T08:15:10;12.23;;;3.37;;
83429;SDS011;73362;50.952;6.952;2024-01-27T08:17:38;7.60;;;3.47;;
83429;SDS011;73362;50.952;6.952;2024-01-27T08:20:06;10.27;;;3.37;;
83429;SDS011;73362;50.952;6.952;2024-01-27T08:22:34;8.77;;;3.50;;
83429;SDS011;73362;50.952;6.952;2024-01-27T08:25:02;7.50;;;3.43;;
83429;SDS011;73362;50.952;6.952;2024-01-27T08:27:31;11.03;;;3.73;;
83429;SDS011;73362;50.952;6.952;2024-01-27T08:29:59;6.47;;;3.10;;
83429;SDS011;73362;50.952;6.952;2024-01-27T08:32:27;13.33;;;3.33;;
83429;SDS011;73362;50.952;6.952;2024-01-27T08:34:55;11.33;;;3.07;;
83429;SDS011;73362;50.952;6.952;2024-01-27T08:37:23;8.67;;;3.90;;
83429;SDS011;73362;50.952;6.952;2024-01-27T08:39:51;9.93;;;3.03;;
83429;SDS011;73362;50.952;6.952;2024-01-27T08:42:19;9.63;;;3.23;;
83429;SDS011;73362;50.952;6.952;2024-01-27T08:44:47;8.50;;;3.20;;
83429;SDS011;73362;50.952;6.952;2024-01-27T08:47:15;10.90;;;3.50;;
83429;SDS011;73362;50.952;6.952;2024-01-27T08:49:43;12.40;;;2.87;;
83429;SDS011;73362;50.952;6.952;2024-01-27T08:52:11;9.97;;;3.07;;
83429;SDS011;73362;50.952;6.952;2024-01-27T08:54:39;11.60;;;3.00;;
83429;SDS011;73362;50.952;6.952;2024-01-27T08:57:07;9.63;;;3.00;;
83429;SDS011;73362;50.952;6.952;2024-01-27T08:59:35;9.67;;;3.20;;
83429;SDS011;73362;50.952;6.952;2024-01-27T09:02:03;12.97;;;3.30;;
83429;SDS011;73362;50.952;6.952;2024-01-27T09:04:31;11.17;;;3.37;;
83429;SDS011;73362;50.952;6.952;2024-01-27T09:06:59;13.83;;;3.50;;
83429;SDS011;73362;50.952;6.952;2024-01-27T09:09:27;9.50;;;3.60;;
83429;SDS011;73362;50.952;6.952;2024-01-27T09:11:55;8.50;;;3.10;;
83429;SDS011;73362;50.952;6.952;2024-01-27T09:14:23;9.97;;;3.80;;
83429;SDS011;73362;50.952;6.952;2024-01-27T09:16:52;9.30;;;3.30;;
83429;SDS011;73362;50.952;6.952;2024-01-27T09:19:20;12.10;;;3.77;;
83429;SDS011;73362;50.952;6.952;2024-01-27T09:21:48;11.23;;;3.53;;
83429;SDS011;73362;50.952;6.952;2024-01-27T09:24:16;7.43;;;3.53;;
83429;SDS011;73362;50.952;6.952;2024-01-27T09:26:44;8.03;;;3.20;;
83429;SDS011;73362;50.952;6.952;2024-01-27T09:29:12;9.70;;;3.40;;
83429;SDS011;73362;50.952;6.952;2024-01-27T09:31:40;9.80;;;2.90;;
83429;SDS011;73362;50.952;6.952;2024-01-27T09:34:09;11.83;;;4.23;;
83429;SDS011;73362;50.952;6.952;2024-01-27T09:36:37;11.90;;;4.10;;
83429;SDS011;73362;50.952;6.952;2024-01-27T09:39:05;12.90;;;4.90;;
83429;SDS011;73362;50.952;6.952;2024-01-27T09:41:33;14.13;;;4.77;;
83429;SDS011;73362;50.952;6.952;2024-01-27T09:44:02;11.20;;;4.40;;
83429;SDS011;73362;50.952;6.952;2024-01-27T09:46:29;11.33;;;4.53;;
83429;SDS011;73362;50.952;6.952;2024-01-27T09:48:57;11.47;;;3.87;;
83429;SDS011;73362;50.952;6.952;2024-01-27T09:51:25;8.20;;;3.67;;
83429;SDS011;73362;50.952;6.952;2024-01-27T09:53:53;15.13;;;4.83;;
83429;SDS011;73362;50.952;6.952;2024-01-27T09:56:21;14.07;;;5.00;;
83429;SDS011;73362;50.952;6.952;2024-01-27T09:58:50;12.27;;;4.13;;
83429;SDS011;73362;50.952;6.952;2024-01-27T10:01:17;13.07;;;4.47;;
83429;SDS011;73362;50.952;6.952;2024-01-27T10:03:46;9.47;;;4.83;;
83429;SDS011;73362;50.952;6.952;2024-01-27T10:06:14;18.43;;;7.80;;
83429;SDS011;73362;50.952;6.952;2024-01-27T10:08:45;16.20;;;7.50;;
83429;SDS011;73362;50.952;6.952;2024-01-27T10:11:11;12.40;;;5.73;;
83429;SDS011;73362;50.952;6.952;2024-01-27T10:13:39;12.53;;;4.93;;
83429;SDS011;73362;50.952;6.952;2024-01-27T10:16:07;10.17;;;4.60;;
83429;SDS011;73362;50.952;6.952;2024-01-27T10:18:35;16.60;;;4.30;;
83429;SDS011;73362;50.952;6.952;2024-01-27T10:23:39;14.63;;;4.63;;
83429;SDS011;73362;50.952;6.952;2024-01-27T10:26:09;12.77;;;4.30;;
83429;SDS011;73362;50.952;6.952;2024-01-27T10:28:37;10.20;;;4.37;;
83429;SDS011;73362;50.952;6.952;2024-01-27T10:31:09;9.47;;;4.60;;
83429;SDS011;73362;50.952;6.952;2024-01-27T10:33:37;16.13;;;5.10;;
83429;SDS011;73362;50.952;6.952;2024-01-27T10:36:05;19.43;;;5.63;;
83429;SDS011;73362;50.952;6.952;2024-01-27T10:41:11;12.63;;;5.70;;
83429;SDS011;73362;50.952;6.952;2024-01-27T10:43:39;11.73;;;4.87;;
83429;SDS011;73362;50.952;6.952;2024-01-27T10:46:07;10.97;;;4.63;;
83429;SDS011;73362;50.952;6.952;2024-01-27T10:48:35;12.03;;;4.17;;
83429;SDS011;73362;50.952;6.952;2024-01-27T10:51:07;9.87;;;3.90;;
83429;SDS011;73362;50.952;6.952;2024-01-27T10:53:32;10.60;;;4.07;;
83429;SDS011;73362;50.952;6.952;2024-01-27T10:56:00;14.40;;;4.70;;
83429;SDS011;73362;50.952;6.952;2024-01-27T10:58:28;8.57;;;3.63;;
83429;SDS011;73362;50.952;6.952;2024-01-27T11:00:56;12.33;;;4.60;;
83429;SDS011;73362;50.952;6.952;2024-01-27T11:03:24;10.37;;;4.67;;
83429;SDS011;73362;50.952;6.952;2024-01-27T11:05:52;13.77;;;4.60;;
83429;SDS011;73362;50.952;6.952;2024-01-27T11:08:20;13.37;;;5.00;;
83429;SDS011;73362;50.952;6.952;2024-01-27T11:10:48;11.07;;;4.10;;
83429;SDS011;73362;50.952;6.952;2024-01-27T11:13:16;10.90;;;4.20;;
83429;SDS011;73362;50.952;6.952;2024-01-27T11:15:50;11.80;;;5.33;;
83429;SDS011;73362;50.952;6.952;2024-01-27T11:18:18;14.40;;;4.70;;
83429;SDS011;73362;50.952;6.952;2024-01-27T11:20:46;9.33;;;4.70;;
83429;SDS011;73362;50.952;6.952;2024-01-27T11:23:14;20.23;;;8.07;;
83429;SDS011;73362;50.952;6.952;2024-01-27T11:25:42;18.83;;;7.13;;
83429;SDS011;73362;50.952;6.952;2024-01-27T11:28:10;12.23;;;5.00;;
83429;SDS011;73362;50.952;6.952;2024-01-27T11:30:38;14.87;;;4.97;;
83429;SDS011;73362;50.952;6.952;2024-01-27T11:33:06;10.87;;;4.97;;
83429;SDS011;73362;50.952;6.952;2024-01-27T11:35:34;13.17;;;4.33;;
83429;SDS011;73362;50.952;6.952;2024-01-27T11:38:02;13.17;;;4.60;;
83429;SDS011;73362;50.952;6.952;2024-01-27T11:40:30;13.53;;;4.47;;
83429;SDS011;73362;50.952;6.952;2024-01-27T11:43:00;11.37;;;4.30;;
83429;SDS011;73362;50.952;6.952;2024-01-27T11:45:27;12.07;;;4.43;;
83429;SDS011;73362;50.952;6.952;2024-01-27T11:47:57;12.00;;;4.60;;
83429;SDS011;73362;50.952;6.952;2024-01-27T11:50:25;13.57;;;4.37;;
83429;SDS011;73362;50.952;6.952;2024-01-27T11:52:53;10.80;;;4.20;;
83429;SDS011;73362;50.952;6.952;2024-01-27T11:55:22;13.20;;;4.50;;
83429;SDS011;73362;50.952;6.952;2024-01-27T11:57:50;12.90;;;3.80;;
83429;SDS011;73362;50.952;6.952;2024-01-27T12:00:18;10.80;;;3.70;;
83429;SDS011;73362;50.952;6.952;2024-01-27T12:02:49;8.60;;;3.60;;
83429;SDS011;73362;50.952;6.952;2024-01-27T12:05:14;12.60;;;4.20;;
83429;SDS011;73362;50.952;6.952;2024-01-27T12:07:42;9.87;;;3.60;;
83429;SDS011;73362;50.952;6.952;2024-01-27T12:10:10;13.67;;;3.63;;
83429;SDS011;73362;50.952;6.952;2024-01-27T12:12:38;13.03;;;4.80;;
83429;SDS011;73362;50.952;6.952;2024-01-27T12:15:06;12.80;;;4.50;;
83429;SDS011;73362;50.952;6.952;2024-01-27T12:17:35;10.40;;;3.87;;
83429;SDS011;73362;50.952;6.952;2024-01-27T12:20:03;11.83;;;3.93;;
83429;SDS011;73362;50.952;6.952;2024-01-27T12:22:32;11.33;;;4.40;;
83429;SDS011;73362;50.952;6.952;2024-01-27T12:27:34;9.80;;;3.50;;
83429;SDS011;73362;50.952;6.952;2024-01-27T12:30:02;11.00;;;3.50;;
83429;SDS011;73362;50.952;6.952;2024-01-27T12:32:30;11.70;;;4.10;;
83429;SDS011;73362;50.952;6.952;2024-01-27T12:34:58;16.20;;;4.07;;
83429;SDS011;73362;50.952;6.952;2024-01-27T12:37:27;14.37;;;5.00;;
83429;SDS011;73362;50.952;6.952;2024-01-27T12:39:56;16.53;;;6.60;;
83429;SDS011;73362;50.952;6.952;2024-01-27T12:42:24;21.43;;;8.80;;
83429;SDS011;73362;50.952;6.952;2024-01-27T12:44:52;24.07;;;8.37;;
83429;SDS011;73362;50.952;6.952;2024-01-27T12:47:20;16.90;;;6.63;;
83429;SDS011;73362;50.952;6.952;2024-01-27T12:49:48;17.87;;;6.30;;
83429;SDS011;73362;50.952;6.952;2024-01-27T12:52:16;17.70;;;7.67;;
83429;SDS011;73362;50.952;6.952;2024-01-27T12:54:44;22.93;;;8.73;;
83429;SDS011;73362;50.952;6.952;2024-01-27T12:57:12;22.13;;;9.10;;
83429;SDS011;73362;50.952;6.952;2024-01-27T12:59:40;17.37;;;6.70;;
83429;SDS011;73362;50.952;6.952;2024-01-27T13:02:08;13.43;;;4.87;;
83429;SDS011;73362;50.952;6.952;2024-01-27T13:04:36;12.40;;;4.80;;
83429;SDS011;73362;50.952;6.952;2024-01-27T13:07:04;16.77;;;6.17;;
83429;SDS011;73362;50.952;6.952;2024-01-27T13:09:33;12.93;;;5.60;;
83429;SDS011;73362;50.952;6.952;2024-01-27T13:12:00;13.43;;;5.10;;
83429;SDS011;73362;50.952;6.952;2024-01-27T13:14:29;11.90;;;4.80;;
83429;SDS011;73362;50.952;6.952;2024-01-27T13:16:57;15.27;;;5.13;;
83429;SDS011;73362;50.952;6.952;2024-01-27T13:19:25;10.27;;;3.73;;
83429;SDS011;73362;50.952;6.952;2024-01-27T13:21:53;10.67;;;3.73;;
83429;SDS011;73362;50.952;6.952;2024-01-27T13:24:21;11.67;;;3.83;;
83429;SDS011;73362;50.952;6.952;2024-01-27T13:26:49;11.53;;;3.77;;
83429;SDS011;73362;50.952;6.952;2024-01-27T13:29:17;11.27;;;3.63;;
83429;SDS011;73362;50.952;6.952;2024-01-27T13:31:45;12.27;;;5.00;;
83429;SDS011;73362;50.952;6.952;2024-01-27T13:34:13;10.07;;;3.90;;
83429;SDS011;73362;50.952;6.952;2024-01-27T13:36:41;10.23;;;4.40;;
83429;SDS011;73362;50.952;6.952;2024-01-27T13:39:09;10.60;;;3.47;;
83429;SDS011;73362;50.952;6.952;2024-01-27T13:41:37;9.03;;;3.50;;
83429;SDS011;73362;50.952;6.952;2024-01-27T13:44:05;12.57;;;3.30;;
83429;SDS011;73362;50.952;6.952;2024-01-27T13:46:33;12.80;;;3.90;;
83429;SDS011;73362;50.952;6.952;2024-01-27T13:49:01;12.57;;;4.63;;
83429;SDS011;73362;50.952;6.952;2024-01-27T13:51:29;10.97;;;4.77;;
83429;SDS011;73362;50.952;6.952;2024-01-27T13:53:57;12.47;;;4.37;;
83429;SDS011;73362;50.952;6.952;2024-01-27T13:56:25;13.60;;;4.77;;
83429;SDS011;73362;50.952;6.952;2024-01-27T13:58:53;13.20;;;4.47;;
83429;SDS011;73362;50.952;6.952;2024-01-27T14:01:21;9.63;;;3.53;;
83429;SDS011;73362;50.952;6.952;2024-01-27T14:03:49;10.60;;;3.57;;
83429;SDS011;73362;50.952;6.952;2024-01-27T14:06:17;15.50;;;3.57;;
83429;SDS011;73362;50.952;6.952;2024-01-27T14:08:45;11.73;;;3.83;;
83429;SDS011;73362;50.952;6.952;2024-01-27T14:11:13;10.97;;;3.90;;
83429;SDS011;73362;50.952;6.952;2024-01-27T14:13:41;12.93;;;3.80;;
83429;SDS011;73362;50.952;6.952;2024-01-27T14:16:09;9.70;;;3.90;;
83429;SDS011;73362;50.952;6.952;2024-01-27T14:18:37;12.77;;;5.20;;
83429;SDS011;73362;50.952;6.952;2024-01-27T14:21:05;11.30;;;4.03;;
83429;SDS011;73362;50.952;6.952;2024-01-27T14:23:33;13.13;;;4.47;;
83429;SDS011;73362;50.952;6.952;2024-01-27T14:26:02;15.73;;;4.33;;
83429;SDS011;73362;50.952;6.952;2024-01-27T14:28:30;12.83;;;3.73;;
83429;SDS011;73362;50.952;6.952;2024-01-27T14:30:58;9.93;;;2.93;;
83429;SDS011;73362;50.952;6.952;2024-01-27T14:33:26;16.70;;;6.50;;
83429;SDS011;73362;50.952;6.952;2024-01-27T14:35:54;17.57;;;6.70;;
83429;SDS011;73362;50.952;6.952;2024-01-27T14:38:22;16.53;;;7.10;;
83429;SDS011;73362;50.952;6.952;2024-01-27T14:40:50;18.27;;;6.50;;
83429;SDS011;73362;50.952;6.952;2024-01-27T14:43:18;18.63;;;7.30;;
83429;SDS011;73362;50.952;6.952;2024-01-27T14:45:46;13.77;;;5.53;;
83429;SDS011;73362;50.952;6.952;2024-01-27T14:48:14;11.90;;;5.17;;
83429;SDS011;73362;50.952;6.952;2024-01-27T14:50:42;12.20;;;4.03;;
83429;SDS011;73362;50.952;6.952;2024-01-27T14:53:10;14.67;;;5.43;;